Flight Track Log - Related Links

Times and Time Zones

All times are in EDT time to prevent confusion due to time zone crossing. See the SWA2336 flight status page for this flight to view local times or setup timezone preferences in your user account.

Time Position Orientation Groundspeed Altitude Reporting Facility
EDT Latitude Longitude Course Direction KTS MPH feet Rate Location/Type
Sat 07:47:35 PM 32.7558 -117.2994 282° West 209 241 4,100  Level Los Angeles Center
Sat 07:48:37 PM 32.6964 -117.3192 196° South 260 299 7,500 3,366 Climbing Los Angeles Center
Sat 07:49:38 PM 32.6489 -117.2475 128° Southeast 276 318 11,000 3,122 Climbing Los Angeles Center
Sat 07:50:40 PM 32.6344 -117.1375 99° East 341 392 13,900 3,073 Climbing Los Angeles Center
Sat 07:51:41 PM 32.6161 -117.0225 101° East 353 406 17,300 3,463 Climbing Los Angeles Center
Sat 07:52:43 PM 32.6961 -116.9172 48° Northeast 385 443 21,000 3,268 Climbing Los Angeles Center
Sat 07:53:44 PM 32.7869 -116.8431 34° Northeast 389 448 24,000 2,533 Climbing Los Angeles Center
Sat 07:54:58 PM 32.8800 -116.7689 34° Northeast 397 457 26,700 2,338 Climbing Los Angeles Center
Sat 07:56:00 PM 32.9975 -116.6728 34° Northeast 420 483 29,300 2,732 Climbing Los Angeles Center
Sat 07:57:01 PM 33.0936 -116.5958 34° Northeast 415 478 32,300 2,634 Climbing Los Angeles Center
Sat 07:58:03 PM 33.1858 -116.5208 34° Northeast 400 460 34,700 2,098 Climbing Los Angeles Center
Sat 07:59:04 PM 33.2772 -116.4475 34° Northeast 394 453 36,600 1,659 Climbing Los Angeles Center
Sat 08:00:06 PM 33.3742 -116.3917 26° Northeast 388 447 38,100 1,171 Climbing Los Angeles Center
Sat 08:01:07 PM 33.4706 -116.3378 25° Northeast 384 442 39,000 439 Climbing Los Angeles Center
Sat 08:02:09 PM 33.5644 -116.2817 26° Northeast 378 435 39,000  Level Los Angeles Center
Sat 08:03:10 PM 33.6292 -116.1719 55° Northeast 399 459 39,000 293 Level Los Angeles Center
Sat 08:04:12 PM 33.7019 -116.0400 56° Northeast 397 457 39,600 488 Climbing Los Angeles Center
Sat 08:05:13 PM 33.7622 -115.9297 57° Northeast 395 455 40,000 585 Climbing Los Angeles Center
Sat 08:06:15 PM 33.8217 -115.8192 57° Northeast 394 453 40,800 488 Climbing Los Angeles Center
Sat 08:07:16 PM 33.8800 -115.7094 57° Northeast 391 450 41,000 98 Climbing Los Angeles Center
Sat 08:08:18 PM 33.9403 -115.5975 57° Northeast 395 455 41,000  Level Los Angeles Center
Sat 08:09:19 PM 33.9997 -115.4839 58° Northeast 399 459 41,000  Level Los Angeles Center
Sat 08:10:21 PM 34.0594 -115.3728 57° Northeast 397 457 41,000  Level Los Angeles Center
Sat 08:11:22 PM 34.1192 -115.2597 57° Northeast 400 460 41,000  Level Los Angeles Center
Sat 08:12:24 PM 34.1911 -115.1272 57° Northeast 394 453 41,000  Level Los Angeles Center
Sat 08:13:26 PM 34.2497 -115.0156 58° Northeast 394 453 41,000  Level Los Angeles Center
Sat 08:14:27 PM 34.3089 -114.9033 57° Northeast 395 455 41,000  Level Los Angeles Center
Sat 08:15:29 PM 34.3678 -114.7897 58° Northeast 400 460 41,000  Level Los Angeles Center
Sat 08:16:30 PM 34.4275 -114.6767 57° Northeast 398 458 41,000  Level Los Angeles Center
Sat 08:17:32 PM 34.4864 -114.5636 58° Northeast 398 458 41,000  Level Los Angeles Center
Sat 08:18:33 PM 34.5458 -114.4514 57° Northeast 395 455 41,000  Level Los Angeles Center
Sat 08:19:35 PM 34.6028 -114.3372 59° Northeast 398 458 41,000  Level Los Angeles Center
Sat 08:20:36 PM 34.6647 -114.2203 57° Northeast 397 457 41,000  Level Los Angeles Center
Sat 08:21:37 PM 34.7225 -114.1069 58° Northeast 395 455 41,000  Level Los Angeles Center
Sat 08:22:39 PM 34.7925 -113.9703 58° Northeast 395 455 41,000  Level Los Angeles Center
Sat 08:23:40 PM 34.8425 -113.8708 58° Northeast 400 460 41,000  Level Los Angeles Center
Sat 08:24:42 PM 34.9014 -113.7575 58° Northeast 398 458 41,000 -244 Level Los Angeles Center
Sat 08:25:43 PM 34.9592 -113.6433 58° Northeast 398 458 40,500 -829 Descending Los Angeles Center
Sat 08:26:45 PM 35.0278 -113.5086 58° Northeast 392 451 39,300 -933 Descending Los Angeles Center
Sat 08:27:58 PM 35.0850 -113.3944 58° Northeast 395 455 38,400 -933 Descending Los Angeles Center
Sat 08:29:00 PM 35.1528 -113.2589 59° Northeast 391 450 37,200 -677 Descending Los Angeles Center
Sat 08:30:02 PM 35.2183 -113.1261 59° Northeast 392 451 37,000 -98 Descending Los Angeles Center
Sat 08:31:03 PM 35.2747 -113.0136 58° Northeast 390 449 37,000  Level Los Angeles Center
Sat 08:32:05 PM 35.3342 -112.8939 59° Northeast 391 450 37,000  Level Los Angeles Center
Sat 08:33:07 PM 35.3897 -112.7789 59° Northeast 393 452 37,000  Level Los Angeles Center
Sat 08:34:08 PM 35.4486 -112.6631 58° Northeast 399 459 37,000  Level Los Angeles Center
Sat 08:35:10 PM 35.4972 -112.5639 59° Northeast 394 453 37,000  Level Los Angeles Center
Sat 08:36:11 PM 35.5647 -112.4256 59° Northeast 396 456 37,000  Level Los Angeles Center
Sat 08:37:13 PM 35.6206 -112.3106 59° Northeast 395 455 37,000  Level Los Angeles Center
Sat 08:38:15 PM 35.6767 -112.1956 59° Northeast 394 453 37,000  Level Los Angeles Center
Sat 08:39:16 PM 35.7331 -112.0806 59° Northeast 395 455 37,000  Level Los Angeles Center
Sat 08:40:18 PM 35.7883 -111.9653 59° Northeast 394 453 37,000  Level Los Angeles Center
Sat 08:41:19 PM 35.8322 -111.8733 59° Northeast 395 455 37,000  Level Los Angeles Center
Sat 08:42:21 PM 35.9103 -111.7103 59° Northeast 396 456 37,000  Level Los Angeles Center
Sat 08:43:23 PM 35.9642 -111.5992 59° Northeast 397 457 37,000  Level Los Angeles Center
Sat 08:44:24 PM 36.0192 -111.4825 60° Northeast 396 456 37,000  Level Los Angeles Center
Sat 08:45:26 PM 36.0753 -111.3658 59° Northeast 396 456 37,000  Level Los Angeles Center
Sat 08:46:28 PM 36.1294 -111.2497 60° Northeast 394 453 37,000  Level Los Angeles Center
Sat 08:47:29 PM 36.1978 -111.1103 59° Northeast 396 456 37,000  Level Los Angeles Center
Sat 08:48:31 PM 36.2544 -110.9933 59° Northeast 397 457 37,000  Level Denver Center
Sat 08:49:32 PM 36.3100 -110.8769 59° Northeast 396 456 37,000  Level Denver Center
Sat 08:50:33 PM 36.3667 -110.7600 59° Northeast 396 456 37,000  Level Denver Center
Sat 08:51:34 PM 36.4231 -110.6414 59° Northeast 398 458 37,000  Level Denver Center
Sat 08:52:35 PM 36.4806 -110.5214 59° Northeast 403 464 37,000  Level Denver Center
Sat 08:53:37 PM 36.5386 -110.4019 59° Northeast 404 465 37,000  Level Denver Center
Sat 08:54:38 PM 36.5925 -110.2828 61° Northeast 404 465 37,000  Level Denver Center
Sat 08:55:39 PM 36.6603 -110.1389 60° Northeast 405 466 37,000  Level Denver Center
Sat 08:56:40 PM 36.7172 -110.0178 60° Northeast 402 463 37,000  Level Denver Center
Sat 08:57:41 PM 36.7708 -109.9025 60° Northeast 401 461 37,000  Level Denver Center
Sat 08:58:43 PM 36.8253 -109.7858 60° Northeast 404 465 37,000  Level Denver Center
Sat 08:59:44 PM 36.8881 -109.6514 60° Northeast 402 463 37,000  Level Denver Center
Sat 09:00:45 PM 36.9322 -109.5544 60° Northeast 401 461 37,000  Level Denver Center
Sat 09:01:46 PM 36.9947 -109.4181 60° Northeast 402 463 37,000  Level Denver Center
Sat 09:02:47 PM 37.0561 -109.2833 60° Northeast 400 460 37,000  Level Denver Center
Sat 09:03:49 PM 37.1103 -109.1653 60° Northeast 406 467 37,000  Level Denver Center
Sat 09:04:50 PM 37.1633 -109.0478 60° Northeast 404 465 37,000  Level Denver Center
Sat 09:05:51 PM 37.2261 -108.9083 60° Northeast 409 471 37,000  Level Denver Center
Sat 09:06:52 PM 37.2808 -108.7878 60° Northeast 415 478 37,000  Level Denver Center
Sat 09:07:53 PM 37.3442 -108.6483 60° Northeast 413 475 37,000  Level Denver Center
Sat 09:08:54 PM 37.3983 -108.5258 61° Northeast 417 480 37,000  Level Denver Center
Sat 09:09:56 PM 37.4522 -108.4050 61° Northeast 415 478 37,000  Level Denver Center
Sat 09:10:57 PM 37.5156 -108.2619 61° Northeast 418 481 37,000  Level Denver Center
Sat 09:11:58 PM 37.5689 -108.1406 61° Northeast 415 478 37,000  Level Denver Center
Sat 09:12:59 PM 37.6236 -108.0178 61° Northeast 418 481 37,000  Level Denver Center
Sat 09:14:00 PM 37.6856 -107.8753 61° Northeast 416 479 37,000  Level Denver Center
Sat 09:15:02 PM 37.7394 -107.7525 61° Northeast 415 478 37,000  Level Denver Center
Sat 09:16:03 PM 37.8031 -107.6083 61° Northeast 421 484 37,000  Level Denver Center
Sat 09:17:04 PM 37.8564 -107.4833 62° Northeast 421 484 37,000  Level Denver Center
Sat 09:18:05 PM 37.9092 -107.3581 62° Northeast 418 481 37,000  Level Denver Center
Sat 09:19:07 PM 37.9725 -107.2142 61° Northeast 418 481 37,000  Level Denver Center
Sat 09:20:08 PM 38.0222 -107.0961 62° Northeast 420 483 37,000 -344 Level Denver Center
Sat 09:21:09 PM 38.0847 -106.9494 62° Northeast 422 486 36,300 -1,475 Descending Denver Center
Sat 09:22:10 PM 38.1392 -106.8217 62° Northeast 431 496 34,000 -1,610 Descending Denver Center
Sat 09:23:12 PM 38.1839 -106.7158 62° Northeast 427 491 33,000 -488 Descending Denver Center
Sat 09:24:13 PM 38.2664 -106.5547 57° Northeast 432 497 33,000  Level Denver Center
Sat 09:25:26 PM 38.3508 -106.4514 44° Northeast 421 484 33,000  Level Denver Center
Sat 09:26:28 PM 38.4525 -106.3247 44° Northeast 426 490 33,000  Level Denver Center
Sat 09:27:29 PM 38.5372 -106.2200 44° Northeast 426 490 33,000  Level Denver Center
Sat 09:28:31 PM 38.6244 -106.1086 45° Northeast 424 488 33,000  Level Denver Center
Sat 09:29:32 PM 38.7189 -105.9900 44° Northeast 425 489 33,000 -836 Level Denver Center
Sat 09:30:33 PM 38.7856 -105.9058 45° Northeast 424 488 31,300 -2,293 Descending Denver Center
Sat 09:31:35 PM 38.8767 -105.7900 45° Northeast 416 479 28,300 -2,878 Descending Denver Center
Sat 09:32:36 PM 38.9644 -105.6800 44° Northeast 400 460 25,400 -2,634 Descending Denver Center
Sat 09:33:38 PM 39.0372 -105.5867 45° Northeast 390 449 22,900 -2,634 Descending Denver Center
Sat 09:34:39 PM 39.1267 -105.4703 45° Northeast 403 464 20,000 -2,459 Descending Denver Center
Sat 09:35:40 PM 39.2008 -105.3783 44° Northeast 385 443 17,900 -1,463 Descending Denver Center
Sat 09:36:42 PM 39.2758 -105.2961 40° Northeast 358 412 17,000 -1,171 Descending Denver Center
Sat 09:37:43 PM 39.3625 -105.2472 24° Northeast 319 367 15,500 -1,770 Descending Denver Center
Sat 09:38:44 PM 39.4450 -105.2106 19° North 316 364 13,400 -1,220 Descending Denver Center
Sat 09:39:46 PM 39.5253 -105.2061 North 295 339 13,000 -195 Descending Denver Center
Sat 09:40:47 PM 39.5992 -105.1958 North 257 296 13,000 -585 Level Denver Center
Sat 09:41:49 PM 39.6622 -105.1608 23° Northeast 252 290 11,800 -1,122 Descending Denver Center
Sat 09:42:50 PM 39.7261 -105.1228 25° Northeast 251 289 10,700 -1,082 Descending Denver Center
Sat 09:43:51 PM 39.7581 -105.0408 63° Northeast 255 293 9,600 -1,171 Descending Denver Center
Sat 09:44:53 PM 39.7928 -104.9569 62° Northeast 246 283 8,300 -1,171 Descending Denver Center
Sat 09:45:54 PM 39.8244 -104.8775 63° Northeast 246 283 7,200 -738 Descending Denver Center
Sat 09:46:55 PM 39.8417 -104.8044 73° East 210 242 6,800 -780 Descending Denver Center
Sat 09:47:57 PM 39.8411 -104.7425 91° East 164 189 5,600 -732 Descending Denver Center
Sat 09:48:58 PM 39.8417 -104.6917 89° East 152 175 5,300 -295 Descending Denver Center
Sat 09:50:00 PM 39.8617 -104.6732 345° North  Level Estimated
Sat 09:57:00 PM 39.8617 -104.6732 North  Level Estimated
Sat 09:58:00 PM 39.8617 -104.6732 North  Level Estimated

Login

Don't have an account? Register now (free) for customized features, flight alerts, and more!